Time;durP1;ratioP1;P1;durP2;ratioP2;P2;SDS_P1;SDS_P2;PMS_P1;PMS_P2;Temp;Humidity;BMP_temperature;BMP_pressure;BME280_temperature;BME280_humidity;BME280_pressure;Samples;Min_cycle;Max_cycle;Signal;HPM_P1;HPM_P2
2023/01/20 00:00:23;;;;;;;;;;;19.20;51.10;;;;;;6302314;28;19962;-68
2023/01/20 00:03:24;;;;;;;;;;;19.20;51.10;;;;;;6302376;28;19943;-67
2023/01/20 00:06:28;;;;;;;;;;;19.20;51.10;;;;;;6301770;28;20037;-67
2023/01/20 00:09:29;;;;;;;;;;;19.20;51.20;;;;;;6320333;28;19926;-68
2023/01/20 00:12:30;;;;;;;;;;;19.20;51.20;;;;;;6320086;28;19904;-67
2023/01/20 00:15:31;;;;;;;;;;;19.20;51.20;;;;;;6320509;28;19914;-67
2023/01/20 00:18:32;;;;;;;;;;;19.20;51.20;;;;;;6320276;28;19983;-67
2023/01/20 00:21:33;;;;;;;;;;;19.20;51.20;;;;;;6320172;28;19904;-67
2023/01/20 00:24:34;;;;;;;;;;;19.20;51.20;;;;;;6301485;28;19904;-67
2023/01/20 00:27:35;;;;;;;;;;;19.20;51.20;;;;;;6319608;28;19923;-68
2023/01/20 00:30:36;;;;;;;;;;;19.20;51.20;;;;;;6319956;28;19904;-67
2023/01/20 00:33:37;;;;;;;;;;;19.20;51.20;;;;;;6320122;28;20668;-68
2023/01/20 00:36:38;;;;;;;;;;;19.20;51.20;;;;;;6319477;28;20651;-67
2023/01/20 00:39:39;;;;;;;;;;;19.20;51.20;;;;;;6319659;28;19912;-67
2023/01/20 00:42:39;;;;;;;;;;;19.20;51.20;;;;;;6319599;28;20598;-67
2023/01/20 00:45:40;;;;;;;;;;;19.20;51.20;;;;;;6301480;28;19957;-67
2023/01/20 00:48:40;;;;;;;;;;;19.20;51.20;;;;;;6301362;28;19904;-67
2023/01/20 00:51:41;;;;;;;;;;;19.20;51.20;;;;;;6301539;28;19904;-67
2023/01/20 00:54:41;;;;;;;;;;;19.20;51.20;;;;;;6319211;28;20012;-70
2023/01/20 00:57:42;;;;;;;;;;;19.20;51.20;;;;;;6319759;28;19994;-67
2023/01/20 01:00:45;;;;;;;;;;;19.20;51.20;;;;;;6319284;28;19904;-68
2023/01/20 01:03:46;;;;;;;;;;;19.20;51.20;;;;;;6301227;28;19904;-67
2023/01/20 01:06:48;;;;;;;;;;;19.20;51.20;;;;;;6319097;28;20042;-67
2023/01/20 01:09:49;;;;;;;;;;;19.20;51.20;;;;;;6319407;28;19910;-67
2023/01/20 01:12:49;;;;;;;;;;;19.20;51.30;;;;;;6319281;28;19935;-67
2023/01/20 01:15:50;;;;;;;;;;;19.20;51.20;;;;;;6319224;28;19908;-67
2023/01/20 01:18:54;;;;;;;;;;;19.20;51.30;;;;;;6319052;28;19905;-67
2023/01/20 01:21:54;;;;;;;;;;;19.20;52.00;;;;;;6319246;28;19904;-68
2023/01/20 01:24:55;;;;;;;;;;;19.20;51.30;;;;;;6318887;28;19904;-67
2023/01/20 01:27:55;;;;;;;;;;;19.20;51.30;;;;;;6319195;28;19923;-68
2023/01/20 01:31:00;;;;;;;;;;;19.20;51.30;;;;;;6301086;28;19904;-67
2023/01/20 01:34:01;;;;;;;;;;;19.20;51.30;;;;;;6319236;28;20431;-67
2023/01/20 01:37:02;;;;;;;;;;;19.20;51.30;;;;;;6300828;28;19914;-67
2023/01/20 01:40:02;;;;;;;;;;;19.20;52.10;;;;;;6318920;28;20332;-67
2023/01/20 01:43:08;;;;;;;;;;;19.20;51.30;;;;;;6319275;28;19904;-67
2023/01/20 01:46:09;;;;;;;;;;;19.20;51.30;;;;;;6300677;28;19981;-67
2023/01/20 01:49:15;;;;;;;;;;;19.20;51.30;;;;;;6300830;28;19908;-68
2023/01/20 01:52:17;;;;;;;;;;;19.20;51.40;;;;;;6302683;28;19911;-68
2023/01/20 01:55:18;;;;;;;;;;;19.20;51.40;;;;;;6322199;28;20353;-66
2023/01/20 01:58:21;;;;;;;;;;;19.20;51.40;;;;;;6321395;28;19912;-66
2023/01/20 02:01:23;;;;;;;;;;;19.20;51.40;;;;;;6322358;28;19934;-66
2023/01/20 02:04:25;;;;;;;;;;;19.20;51.40;;;;;;6322251;28;20398;-67
2023/01/20 02:07:26;;;;;;;;;;;19.20;51.40;;;;;;6321620;28;19944;-67
2023/01/20 02:10:26;;;;;;;;;;;19.20;51.40;;;;;;6321150;28;19912;-67
2023/01/20 02:13:27;;;;;;;;;;;19.20;51.40;;;;;;6321359;28;19904;-67
2023/01/20 02:16:48;;;;;;;;;;;19.20;51.40;;;;;;6321216;28;19919;-67
2023/01/20 02:20:01;;;;;;;;;;;19.20;51.40;;;;;;6321179;28;20018;-67
2023/01/20 02:23:20;;;;;;;;;;;19.20;51.40;;;;;;6321169;28;19904;-67
2023/01/20 02:26:26;;;;;;;;;;;19.20;51.40;;;;;;6320986;28;19966;-67
2023/01/20 02:29:33;;;;;;;;;;;19.20;51.40;;;;;;6321274;28;19907;-67
2023/01/20 02:32:41;;;;;;;;;;;19.20;51.40;;;;;;6321130;28;19931;-67
2023/01/20 02:35:41;;;;;;;;;;;19.20;51.40;;;;;;6302890;28;19914;-67
2023/01/20 02:38:53;;;;;;;;;;;19.20;51.40;;;;;;6321202;28;20352;-67
2023/01/20 02:41:57;;;;;;;;;;;19.20;51.50;;;;;;6320963;28;19903;-67
2023/01/20 02:45:00;;;;;;;;;;;19.20;51.40;;;;;;6320308;28;19907;-67
2023/01/20 02:48:06;;;;;;;;;;;19.20;51.40;;;;;;6320205;28;19904;-70
2023/01/20 02:51:06;;;;;;;;;;;19.20;51.40;;;;;;6302062;28;20646;-67
2023/01/20 02:54:10;;;;;;;;;;;19.20;51.40;;;;;;6319861;28;19908;-67
2023/01/20 02:57:13;;;;;;;;;;;19.20;51.50;;;;;;6319975;28;19966;-67
2023/01/20 03:00:22;;;;;;;;;;;19.20;51.40;;;;;;6319760;28;19954;-67
2023/01/20 03:03:28;;;;;;;;;;;19.20;51.40;;;;;;6318187;28;19941;-67
2023/01/20 03:06:32;;;;;;;;;;;19.20;51.50;;;;;;6319689;28;20384;-67
2023/01/20 03:09:36;;;;;;;;;;;19.20;51.40;;;;;;6320231;28;19915;-67
2023/01/20 03:12:37;;;;;;;;;;;19.20;51.40;;;;;;6319659;28;19912;-67
2023/01/20 03:15:55;;;;;;;;;;;19.20;51.50;;;;;;6319754;28;19944;-67
2023/01/20 03:18:56;;;;;;;;;;;19.20;51.50;;;;;;6319842;28;19911;-67
2023/01/20 03:21:56;;;;;;;;;;;19.20;51.50;;;;;;6301509;28;19928;-67
2023/01/20 03:24:57;;;;;;;;;;;19.20;51.50;;;;;;6319143;28;19907;-67
2023/01/20 03:27:58;;;;;;;;;;;19.20;51.50;;;;;;6319674;28;20323;-67
2023/01/20 03:31:00;;;;;;;;;;;19.20;51.50;;;;;;6319121;28;19907;-67
2023/01/20 03:34:02;;;;;;;;;;;19.20;51.40;;;;;;6319345;28;19904;-67
2023/01/20 03:37:03;;;;;;;;;;;19.20;51.50;;;;;;6319142;28;20384;-67
2023/01/20 03:40:04;;;;;;;;;;;19.20;51.50;;;;;;6319530;28;19908;-67
2023/01/20 03:43:08;;;;;;;;;;;19.20;51.50;;;;;;6319272;28;20312;-67
2023/01/20 03:46:20;;;;;;;;;;;19.20;51.50;;;;;;6318949;28;19947;-66
2023/01/20 03:49:32;;;;;;;;;;;19.20;51.50;;;;;;6318838;28;19907;-67
2023/01/20 03:52:33;;;;;;;;;;;19.20;51.50;;;;;;6319182;28;19911;-67
2023/01/20 03:55:42;;;;;;;;;;;19.20;51.50;;;;;;6300598;28;19955;-67
2023/01/20 03:58:45;;;;;;;;;;;19.20;51.50;;;;;;6318906;28;19922;-67
2023/01/20 04:01:46;;;;;;;;;;;19.20;51.50;;;;;;6300233;28;19916;-67
2023/01/20 04:04:48;;;;;;;;;;;19.20;51.50;;;;;;6318659;28;20436;-66
2023/01/20 04:07:49;;;;;;;;;;;19.20;51.60;;;;;;6318448;28;19904;-67
2023/01/20 04:10:50;;;;;;;;;;;19.20;51.50;;;;;;6300149;28;20593;-67
2023/01/20 04:13:50;;;;;;;;;;;19.20;51.60;;;;;;6299672;28;19908;-67
2023/01/20 04:16:53;;;;;;;;;;;19.20;51.60;;;;;;6318523;28;20437;-66
2023/01/20 04:19:54;;;;;;;;;;;19.20;51.50;;;;;;6318317;28;19995;-67
2023/01/20 04:22:56;;;;;;;;;;;19.20;51.50;;;;;;6318473;28;19910;-67
2023/01/20 04:25:56;;;;;;;;;;;19.20;51.50;;;;;;6317671;28;20320;-67
2023/01/20 04:28:57;;;;;;;;;;;19.20;51.50;;;;;;6318294;28;19999;-67
2023/01/20 04:31:59;;;;;;;;;;;19.20;51.50;;;;;;6306450;28;19904;-67
2023/01/20 04:34:59;;;;;;;;;;;19.20;51.60;;;;;;6318092;28;19908;-67
2023/01/20 04:38:00;;;;;;;;;;;19.20;51.50;;;;;;6318410;28;19911;-67
2023/01/20 04:41:00;;;;;;;;;;;19.20;51.60;;;;;;6318327;28;19941;-67
2023/01/20 04:44:01;;;;;;;;;;;19.20;51.50;;;;;;6318011;28;19911;-67
2023/01/20 04:47:01;;;;;;;;;;;19.10;51.50;;;;;;6318203;28;19955;-67
2023/01/20 04:50:02;;;;;;;;;;;19.20;51.60;;;;;;6317818;28;19954;-67
2023/01/20 04:53:03;;;;;;;;;;;19.20;51.60;;;;;;6317848;28;19907;-67
2023/01/20 04:56:03;;;;;;;;;;;19.20;51.60;;;;;;6317537;28;20544;-66
2023/01/20 05:02:42;;;;;;;;;;;19.20;51.60;;;;;;6317788;28;19904;-69
2023/01/20 05:05:43;;;;;;;;;;;19.20;51.60;;;;;;6317767;28;19911;-70
2023/01/20 05:08:43;;;;;;;;;;;19.20;51.60;;;;;;6318350;28;19911;-67
2023/01/20 05:11:44;;;;;;;;;;;19.20;51.60;;;;;;6317975;28;19939;-69
2023/01/20 05:14:44;;;;;;;;;;;19.20;51.60;;;;;;6317582;28;19908;-69
2023/01/20 05:17:45;;;;;;;;;;;19.20;51.60;;;;;;6317654;28;19908;-67
2023/01/20 05:20:47;;;;;;;;;;;19.20;51.60;;;;;;6317916;28;19994;-69
2023/01/20 05:23:47;;;;;;;;;;;19.20;51.60;;;;;;6317506;28;20003;-69
2023/01/20 05:26:48;;;;;;;;;;;19.20;51.50;;;;;;6318689;28;19916;-69
2023/01/20 05:29:48;;;;;;;;;;;19.20;51.60;;;;;;6322421;28;19904;-69
2023/01/20 05:32:49;;;;;;;;;;;19.20;51.60;;;;;;6322546;28;19904;-68
2023/01/20 05:35:50;;;;;;;;;;;19.20;51.60;;;;;;6322134;28;19919;-68
2023/01/20 05:38:50;;;;;;;;;;;19.20;51.60;;;;;;6322587;28;19904;-69
2023/01/20 05:41:51;;;;;;;;;;;19.20;51.60;;;;;;6322411;28;19911;-69
2023/01/20 05:44:52;;;;;;;;;;;19.20;51.60;;;;;;6321783;28;19904;-67
2023/01/20 05:47:56;;;;;;;;;;;19.20;51.60;;;;;;6322589;28;19904;-69
2023/01/20 05:50:57;;;;;;;;;;;19.20;51.70;;;;;;6304184;28;19970;-69
2023/01/20 05:53:57;;;;;;;;;;;19.20;51.60;;;;;;6322539;28;19910;-70
2023/01/20 05:56:58;;;;;;;;;;;19.20;51.70;;;;;;6314694;28;19928;-70
2023/01/20 05:59:59;;;;;;;;;;;19.20;51.60;;;;;;6303628;28;19904;-72
2023/01/20 06:03:00;;;;;;;;;;;19.20;51.50;;;;;;6323822;28;19933;-72
2023/01/20 06:06:02;;;;;;;;;;;19.20;51.50;;;;;;6322213;28;19953;-72
2023/01/20 06:09:02;;;;;;;;;;;19.20;51.50;;;;;;6323277;28;19911;-71
2023/01/20 06:12:07;;;;;;;;;;;19.20;51.40;;;;;;6321984;28;19991;-72
2023/01/20 06:15:11;;;;;;;;;;;19.20;51.50;;;;;;6321583;28;19907;-72
2023/01/20 06:18:13;;;;;;;;;;;19.20;51.90;;;;;;6315573;28;20607;-71
2023/01/20 06:21:14;;;;;;;;;;;19.20;51.60;;;;;;6322825;28;19908;-72
2023/01/20 06:24:15;;;;;;;;;;;19.20;51.60;;;;;;6312791;28;19946;-72
2023/01/20 06:27:15;;;;;;;;;;;19.20;51.60;;;;;;6329346;28;19920;-72
2023/01/20 06:30:16;;;;;;;;;;;19.20;51.70;;;;;;6334372;28;19908;-73
2023/01/20 06:33:17;;;;;;;;;;;19.20;51.70;;;;;;6322482;28;19912;-72
2023/01/20 06:36:18;;;;;;;;;;;19.20;51.70;;;;;;6304491;28;19908;-72
2023/01/20 06:39:19;;;;;;;;;;;19.20;51.70;;;;;;6308207;28;19954;-72
2023/01/20 06:42:21;;;;;;;;;;;19.20;51.70;;;;;;6346591;28;19957;-71
2023/01/20 06:45:21;;;;;;;;;;;19.20;51.70;;;;;;6335433;28;19904;-72
2023/01/20 06:48:23;;;;;;;;;;;19.20;51.70;;;;;;6322083;28;19911;-72
2023/01/20 06:51:25;;;;;;;;;;;19.20;51.50;;;;;;6317478;28;19904;-72
2023/01/20 06:54:27;;;;;;;;;;;19.30;51.80;;;;;;6302545;28;19935;-74
2023/01/20 06:57:29;;;;;;;;;;;19.30;51.70;;;;;;6329120;28;19914;-74
2023/01/20 07:00:29;;;;;;;;;;;19.30;51.80;;;;;;6310927;28;19918;-71
2023/01/20 07:03:32;;;;;;;;;;;19.30;51.40;;;;;;6327889;28;19904;-75
2023/01/20 07:06:34;;;;;;;;;;;19.40;51.30;;;;;;6291772;28;19904;-71
2023/01/20 07:09:35;;;;;;;;;;;19.40;51.40;;;;;;6302468;28;19904;-71
2023/01/20 07:12:35;;;;;;;;;;;19.40;51.20;;;;;;6330584;28;20332;-71
2023/01/20 07:15:36;;;;;;;;;;;19.40;51.20;;;;;;6348735;28;19912;-71
2023/01/20 07:18:37;;;;;;;;;;;19.40;51.10;;;;;;6330463;28;19914;-71
2023/01/20 07:21:38;;;;;;;;;;;19.40;51.10;;;;;;6330692;28;20265;-71
2023/01/20 07:24:38;;;;;;;;;;;19.40;51.00;;;;;;6322762;28;20046;-71
2023/01/20 07:27:39;;;;;;;;;;;19.40;51.10;;;;;;6321793;28;19922;-69
2023/01/20 07:30:39;;;;;;;;;;;19.40;51.40;;;;;;6322621;28;19908;-70
2023/01/20 07:33:40;;;;;;;;;;;19.40;51.50;;;;;;6323031;28;19924;-70
2023/01/20 07:36:41;;;;;;;;;;;19.30;51.50;;;;;;6322357;28;20418;-70
2023/01/20 07:39:41;;;;;;;;;;;19.30;51.50;;;;;;6304476;28;19943;-69
2023/01/20 07:42:42;;;;;;;;;;;19.30;51.60;;;;;;6322538;28;19911;-69
2023/01/20 07:45:43;;;;;;;;;;;19.30;51.60;;;;;;6322455;28;20033;-69
2023/01/20 07:48:45;;;;;;;;;;;19.30;51.70;;;;;;6321902;28;19999;-69
2023/01/20 07:51:45;;;;;;;;;;;19.30;51.70;;;;;;6322471;28;19904;-69
2023/01/20 07:54:46;;;;;;;;;;;19.30;51.70;;;;;;6321995;28;19918;-68
2023/01/20 07:57:47;;;;;;;;;;;19.30;51.70;;;;;;6303927;28;19918;-69
2023/01/20 08:00:49;;;;;;;;;;;19.30;51.70;;;;;;6303824;28;19908;-69
2023/01/20 08:03:50;;;;;;;;;;;19.30;51.70;;;;;;6304409;28;19904;-69
2023/01/20 08:06:50;;;;;;;;;;;19.30;51.80;;;;;;6303655;28;19904;-69
2023/01/20 08:09:51;;;;;;;;;;;19.30;51.80;;;;;;6322294;28;19943;-69
2023/01/20 08:12:51;;;;;;;;;;;19.30;51.80;;;;;;6317275;28;19912;-69
2023/01/20 08:15:52;;;;;;;;;;;19.30;51.80;;;;;;6314828;28;20011;-69
2023/01/20 08:18:53;;;;;;;;;;;19.30;51.80;;;;;;6317705;28;19908;-70
2023/01/20 08:21:54;;;;;;;;;;;19.30;51.90;;;;;;6321971;28;19962;-69
2023/01/20 08:24:55;;;;;;;;;;;19.30;51.90;;;;;;6309904;28;19910;-69
2023/01/20 08:27:55;;;;;;;;;;;19.30;51.80;;;;;;6320892;28;19968;-69
2023/01/20 08:31:15;;;;;;;;;;;19.30;51.80;;;;;;6320989;28;19936;-69
2023/01/20 08:34:50;;;;;;;;;;;19.30;51.70;;;;;;6320937;28;19943;-67
2023/01/20 08:37:51;;;;;;;;;;;19.30;51.70;;;;;;6336363;28;19911;-69
2023/01/20 08:40:51;;;;;;;;;;;19.40;51.70;;;;;;6329428;28;20326;-70
2023/01/20 08:43:52;;;;;;;;;;;19.40;51.70;;;;;;6334783;28;19904;-69
2023/01/20 08:46:56;;;;;;;;;;;19.30;51.70;;;;;;6317035;28;19915;-69
2023/01/20 08:49:58;;;;;;;;;;;19.40;51.90;;;;;;6345436;28;19954;-69
2023/01/20 08:52:58;;;;;;;;;;;19.50;51.60;;;;;;6323687;28;19926;-69
2023/01/20 08:56:00;;;;;;;;;;;19.60;51.30;;;;;;6327220;28;19951;-72
2023/01/20 08:59:02;;;;;;;;;;;19.60;51.40;;;;;;6327112;28;19907;-71
2023/01/20 09:02:02;;;;;;;;;;;19.60;51.30;;;;;;6327388;28;19904;-70
2023/01/20 09:05:03;;;;;;;;;;;19.60;51.20;;;;;;6326466;28;19904;-69
2023/01/20 09:08:04;;;;;;;;;;;19.70;51.30;;;;;;6338652;28;20003;-70
2023/01/20 09:11:09;;;;;;;;;;;19.60;51.20;;;;;;6336117;28;19908;-70
2023/01/20 09:14:10;;;;;;;;;;;19.60;51.10;;;;;;6346950;28;19908;-71
2023/01/20 09:17:11;;;;;;;;;;;19.60;51.10;;;;;;6300647;28;20254;-70
2023/01/20 09:20:12;;;;;;;;;;;19.60;51.00;;;;;;6325688;28;20276;-70
2023/01/20 09:23:12;;;;;;;;;;;19.60;51.20;;;;;;6337730;28;20391;-71
2023/01/20 09:26:13;;;;;;;;;;;19.60;51.10;;;;;;6316689;28;19923;-71
2023/01/20 09:29:15;;;;;;;;;;;19.70;51.20;;;;;;6338953;28;19954;-71
2023/01/20 09:32:15;;;;;;;;;;;19.70;51.40;;;;;;6341345;28;20439;-70
2023/01/20 09:35:16;;;;;;;;;;;19.70;51.30;;;;;;6324545;28;19912;-71
2023/01/20 09:45:23;;;;;;;;;;;19.70;51.10;;;;;;6324704;28;19931;-69
2023/01/20 09:55:21;;;;;;;;;;;19.70;50.90;;;;;;6324072;28;20280;-70
2023/01/20 09:58:40;;;;;;;;;;;19.70;51.10;;;;;;6323797;28;19911;-72
2023/01/20 10:01:48;;;;;;;;;;;19.70;51.00;;;;;;6316929;28;19904;-70
2023/01/20 10:04:56;;;;;;;;;;;19.70;50.90;;;;;;6305732;28;19915;-69
2023/01/20 10:08:00;;;;;;;;;;;19.70;51.00;;;;;;6324022;28;19999;-70
2023/01/20 10:11:07;;;;;;;;;;;19.70;51.00;;;;;;6306550;28;19904;-68
2023/01/20 10:14:14;;;;;;;;;;;19.80;51.00;;;;;;6335456;28;19908;-70
2023/01/20 10:17:35;;;;;;;;;;;19.80;51.00;;;;;;6326993;28;19912;-70
2023/01/20 10:20:45;;;;;;;;;;;19.80;51.10;;;;;;6328308;28;19950;-71
2023/01/20 10:23:46;;;;;;;;;;;19.80;51.00;;;;;;6302553;28;19946;-70
2023/01/20 10:26:50;;;;;;;;;;;19.80;51.20;;;;;;6323476;28;19920;-70
2023/01/20 10:29:57;;;;;;;;;;;19.80;51.10;;;;;;6323461;28;20430;-70
2023/01/20 10:33:01;;;;;;;;;;;19.80;51.10;;;;;;6305538;28;19969;-72
2023/01/20 10:36:01;;;;;;;;;;;19.80;51.20;;;;;;6327267;28;20348;-70
2023/01/20 10:39:20;;;;;;;;;;;19.80;51.20;;;;;;6348119;28;19911;-70
2023/01/20 10:42:23;;;;;;;;;;;19.80;51.30;;;;;;6348946;28;19915;-70
2023/01/20 10:45:44;;;;;;;;;;;19.70;51.30;;;;;;6331779;28;19995;-71
2023/01/20 10:49:17;;;;;;;;;;;19.70;51.50;;;;;;6310342;28;19904;-69
2023/01/20 10:52:27;;;;;;;;;;;19.70;51.50;;;;;;6274586;28;19914;-70
2023/01/20 10:55:33;;;;;;;;;;;19.70;51.50;;;;;;6337949;28;19915;-70
2023/01/20 10:58:39;;;;;;;;;;;19.70;51.50;;;;;;6347775;28;19911;-70
2023/01/20 11:01:41;;;;;;;;;;;19.70;51.60;;;;;;6328545;28;19904;-70
2023/01/20 11:04:42;;;;;;;;;;;19.70;51.50;;;;;;6339282;28;19911;-69
2023/01/20 11:07:44;;;;;;;;;;;19.80;51.70;;;;;;6317918;28;19908;-69
2023/01/20 11:10:45;;;;;;;;;;;19.80;51.50;;;;;;6291365;28;19914;-72
2023/01/20 11:13:46;;;;;;;;;;;19.80;51.30;;;;;;6332739;28;19911;-69
2023/01/20 11:16:53;;;;;;;;;;;19.80;51.20;;;;;;6303227;28;19923;-70
2023/01/20 11:19:55;;;;;;;;;;;19.80;51.20;;;;;;6310477;28;19991;-71
2023/01/20 11:22:56;;;;;;;;;;;19.90;51.30;;;;;;6303496;28;19908;-70
2023/01/20 11:25:57;;;;;;;;;;;19.90;51.90;;;;;;6320331;28;19926;-70
2023/01/20 11:29:07;;;;;;;;;;;19.90;51.20;;;;;;6323059;28;19912;-70
2023/01/20 11:32:26;;;;;;;;;;;20.00;51.00;;;;;;6296008;28;19912;-70
2023/01/20 11:35:26;;;;;;;;;;;20.00;51.00;;;;;;6295951;28;19920;-68
2023/01/20 11:38:28;;;;;;;;;;;20.00;50.90;;;;;;6295710;28;19909;-70
2023/01/20 11:41:30;;;;;;;;;;;20.00;51.00;;;;;;6315044;28;19958;-70
2023/01/20 11:44:31;;;;;;;;;;;20.00;50.90;;;;;;6315395;28;20392;-70
2023/01/20 11:47:33;;;;;;;;;;;20.00;50.90;;;;;;6286350;28;19905;-70
2023/01/20 11:50:56;;;;;;;;;;;20.00;50.90;;;;;;6306023;28;19904;-69
2023/01/20 11:54:07;;;;;;;;;;;20.10;50.90;;;;;;6268828;28;19908;-70
2023/01/20 11:57:15;;;;;;;;;;;20.00;50.90;;;;;;6317456;28;19912;-69
2023/01/20 12:00:18;;;;;;;;;;;20.00;50.90;;;;;;6315657;28;19904;-70
2023/01/20 12:03:31;;;;;;;;;;;20.00;51.10;;;;;;6314164;28;19908;-70
2023/01/20 12:06:56;;;;;;;;;;;20.00;51.10;;;;;;6302668;28;19997;-70
2023/01/20 12:10:02;;;;;;;;;;;20.10;51.30;;;;;;6282931;28;19987;-70
2023/01/20 12:13:15;;;;;;;;;;;20.10;51.20;;;;;;6298847;28;19911;-70
2023/01/20 12:16:16;;;;;;;;;;;20.10;51.50;;;;;;6294852;28;19918;-71
2023/01/20 12:19:17;;;;;;;;;;;20.10;51.60;;;;;;6277738;28;20523;-70
2023/01/20 12:22:23;;;;;;;;;;;20.10;51.40;;;;;;6302168;28;19930;-70
2023/01/20 12:25:29;;;;;;;;;;;20.10;51.30;;;;;;6288621;28;19904;-70
2023/01/20 12:28:35;;;;;;;;;;;20.10;51.40;;;;;;6295735;28;19938;-70
2023/01/20 12:31:36;;;;;;;;;;;20.00;51.10;;;;;;6286666;28;20315;-70
2023/01/20 12:34:37;;;;;;;;;;;20.00;51.10;;;;;;6320336;28;19911;-69
2023/01/20 12:38:05;;;;;;;;;;;20.00;51.20;;;;;;6320590;28;19919;-70
2023/01/20 12:41:12;;;;;;;;;;;20.00;51.20;;;;;;6314105;28;19960;-70
2023/01/20 12:44:12;;;;;;;;;;;20.00;51.30;;;;;;6320221;28;19907;-70
2023/01/20 12:47:13;;;;;;;;;;;20.00;51.40;;;;;;6319547;28;20370;-70
2023/01/20 12:50:32;;;;;;;;;;;20.00;51.40;;;;;;6319790;28;19904;-69
2023/01/20 12:53:43;;;;;;;;;;;20.00;51.50;;;;;;6302223;28;19953;-71
2023/01/20 12:56:49;;;;;;;;;;;20.00;51.40;;;;;;6319466;28;19914;-70
2023/01/20 12:59:59;;;;;;;;;;;20.00;51.40;;;;;;6332366;28;19904;-70
2023/01/20 13:03:08;;;;;;;;;;;20.00;51.50;;;;;;6328807;28;19943;-70
2023/01/20 13:06:09;;;;;;;;;;;19.90;51.50;;;;;;6320237;28;19938;-70
2023/01/20 13:09:19;;;;;;;;;;;19.90;51.60;;;;;;6319911;28;19904;-69
2023/01/20 13:12:40;;;;;;;;;;;19.90;51.60;;;;;;6324974;28;19911;-70
2023/01/20 13:15:51;;;;;;;;;;;19.90;51.70;;;;;;6301325;28;19915;-69
2023/01/20 13:19:15;;;;;;;;;;;19.90;51.70;;;;;;6334155;28;19912;-69
2023/01/20 13:22:15;;;;;;;;;;;20.00;51.90;;;;;;6317239;28;19904;-70
2023/01/20 13:25:17;;;;;;;;;;;20.00;51.90;;;;;;6345033;28;19908;-70
2023/01/20 13:28:20;;;;;;;;;;;19.90;51.90;;;;;;6344357;28;19924;-70
2023/01/20 13:31:29;;;;;;;;;;;19.90;51.70;;;;;;6322859;28;19957;-70
2023/01/20 13:34:31;;;;;;;;;;;19.90;51.70;;;;;;6345763;28;20550;-70
2023/01/20 13:37:36;;;;;;;;;;;19.90;51.70;;;;;;6337290;28;19908;-68
2023/01/20 13:40:37;;;;;;;;;;;19.90;51.70;;;;;;6319492;28;19965;-70
2023/01/20 13:43:45;;;;;;;;;;;19.90;51.70;;;;;;6335895;28;19903;-70
2023/01/20 13:46:47;;;;;;;;;;;19.90;51.90;;;;;;6344807;28;19953;-69
2023/01/20 13:49:49;;;;;;;;;;;19.90;51.90;;;;;;6342531;28;19908;-69
2023/01/20 13:52:51;;;;;;;;;;;19.90;52.00;;;;;;6324323;28;19922;-69
2023/01/20 13:55:52;;;;;;;;;;;19.90;52.00;;;;;;6330883;28;19908;-69
2023/01/20 13:58:54;;;;;;;;;;;19.90;51.90;;;;;;6348907;28;19903;-69
2023/01/20 14:01:55;;;;;;;;;;;19.90;51.90;;;;;;6325268;28;19904;-69
2023/01/20 14:04:57;;;;;;;;;;;19.90;51.90;;;;;;6322939;28;19912;-68
2023/01/20 14:07:58;;;;;;;;;;;19.80;51.80;;;;;;6304573;28;20003;-69
2023/01/20 14:11:06;;;;;;;;;;;19.80;51.90;;;;;;6322836;28;19912;-68
2023/01/20 14:14:16;;;;;;;;;;;19.80;51.90;;;;;;6320796;28;20368;-69
2023/01/20 14:17:21;;;;;;;;;;;19.80;51.90;;;;;;6297383;28;20007;-69
2023/01/20 14:20:22;;;;;;;;;;;19.80;51.80;;;;;;6322303;28;19950;-69
2023/01/20 14:23:25;;;;;;;;;;;19.80;51.90;;;;;;6329453;28;19927;-69
2023/01/20 14:26:27;;;;;;;;;;;19.80;52.10;;;;;;6303253;28;19916;-69
2023/01/20 14:29:29;;;;;;;;;;;19.80;52.00;;;;;;6321776;28;19920;-68
2023/01/20 14:32:34;;;;;;;;;;;19.80;52.10;;;;;;6303546;28;19904;-68
2023/01/20 14:35:34;;;;;;;;;;;19.80;52.10;;;;;;6321242;28;19908;-68
2023/01/20 14:38:35;;;;;;;;;;;19.80;52.10;;;;;;6316650;28;19954;-69
2023/01/20 14:41:46;;;;;;;;;;;19.80;52.10;;;;;;6322974;28;19915;-68
2023/01/20 14:44:48;;;;;;;;;;;19.80;52.10;;;;;;6298337;28;19912;-69
2023/01/20 14:47:49;;;;;;;;;;;19.80;52.10;;;;;;6320444;28;19904;-69
2023/01/20 14:50:52;;;;;;;;;;;19.80;52.10;;;;;;6335081;28;19961;-68
2023/01/20 14:54:11;;;;;;;;;;;19.80;52.10;;;;;;6319974;28;19933;-69
2023/01/20 14:57:23;;;;;;;;;;;19.80;52.20;;;;;;6328399;28;19916;-68
2023/01/20 15:00:24;;;;;;;;;;;19.80;52.20;;;;;;6338297;28;19904;-69
2023/01/20 15:03:28;;;;;;;;;;;19.80;52.20;;;;;;6321956;28;19911;-69
2023/01/20 15:06:29;;;;;;;;;;;19.80;52.10;;;;;;6323797;28;19915;-68
2023/01/20 15:09:32;;;;;;;;;;;19.80;52.10;;;;;;6321165;28;19955;-69
2023/01/20 15:12:39;;;;;;;;;;;19.80;52.20;;;;;;6321325;28;19915;-69
2023/01/20 15:15:42;;;;;;;;;;;19.80;52.20;;;;;;6340158;28;19914;-68
2023/01/20 15:18:43;;;;;;;;;;;19.80;52.20;;;;;;6332421;28;19939;-69
2023/01/20 15:21:45;;;;;;;;;;;19.80;52.20;;;;;;6346216;28;19914;-69
2023/01/20 15:24:48;;;;;;;;;;;19.80;52.30;;;;;;6345793;28;19938;-69
2023/01/20 15:27:53;;;;;;;;;;;19.70;52.20;;;;;;6326172;28;20379;-69
2023/01/20 15:30:55;;;;;;;;;;;19.70;52.30;;;;;;6302478;28;19908;-69
2023/01/20 15:33:56;;;;;;;;;;;19.70;52.50;;;;;;6323054;28;19915;-69
2023/01/20 15:36:56;;;;;;;;;;;19.70;52.30;;;;;;6318238;28;19908;-68
2023/01/20 15:39:58;;;;;;;;;;;19.70;52.30;;;;;;6321163;28;19908;-69
2023/01/20 15:42:58;;;;;;;;;;;19.70;52.30;;;;;;6320627;28;19954;-69
2023/01/20 15:45:59;;;;;;;;;;;19.70;52.40;;;;;;6320151;28;19908;-69
2023/01/20 15:49:00;;;;;;;;;;;19.70;53.10;;;;;;6301565;28;20016;-69
2023/01/20 15:52:01;;;;;;;;;;;19.60;52.40;;;;;;6318307;28;19946;-69
2023/01/20 15:55:02;;;;;;;;;;;19.70;52.50;;;;;;6310090;28;19958;-69
2023/01/20 15:58:14;;;;;;;;;;;19.60;52.40;;;;;;6328898;28;20386;-69
2023/01/20 16:01:16;;;;;;;;;;;19.70;52.70;;;;;;6330146;28;19903;-68
2023/01/20 16:04:17;;;;;;;;;;;19.70;53.00;;;;;;6319931;28;20038;-69
2023/01/20 16:07:18;;;;;;;;;;;19.80;53.30;;;;;;6318333;28;19907;-69
2023/01/20 16:10:19;;;;;;;;;;;19.70;52.90;;;;;;6326795;28;19904;-68
2023/01/20 16:13:19;;;;;;;;;;;19.70;52.80;;;;;;6302955;28;19958;-68
2023/01/20 16:16:21;;;;;;;;;;;19.70;52.80;;;;;;6286564;28;20367;-68
2023/01/20 16:19:22;;;;;;;;;;;19.70;52.80;;;;;;6302715;28;19915;-68
2023/01/20 16:22:22;;;;;;;;;;;19.60;52.80;;;;;;6320841;28;19929;-68
2023/01/20 16:25:23;;;;;;;;;;;19.60;52.70;;;;;;6327686;28;20002;-69
2023/01/20 16:28:24;;;;;;;;;;;19.60;52.90;;;;;;6306263;28;19912;-69
2023/01/20 16:31:25;;;;;;;;;;;19.70;52.80;;;;;;6318998;28;20369;-68
2023/01/20 16:34:26;;;;;;;;;;;19.70;52.80;;;;;;6300558;28;19990;-68
2023/01/20 16:37:26;;;;;;;;;;;19.70;52.70;;;;;;6318761;28;19953;-69
2023/01/20 16:40:29;;;;;;;;;;;19.70;52.70;;;;;;6319007;28;19995;-68
2023/01/20 16:43:31;;;;;;;;;;;19.70;52.60;;;;;;6318259;28;19942;-68
2023/01/20 16:46:32;;;;;;;;;;;19.70;52.60;;;;;;6300568;28;19911;-68
2023/01/20 16:49:33;;;;;;;;;;;19.70;52.60;;;;;;6318936;28;20266;-68
2023/01/20 16:52:33;;;;;;;;;;;19.70;52.60;;;;;;6318107;28;19907;-69
2023/01/20 16:55:34;;;;;;;;;;;19.70;52.60;;;;;;6309590;28;19916;-69
2023/01/20 16:58:34;;;;;;;;;;;19.70;52.60;;;;;;6317542;28;19908;-69
2023/01/20 17:01:35;;;;;;;;;;;19.70;52.60;;;;;;6318098;28;19904;-69
2023/01/20 17:04:36;;;;;;;;;;;19.70;52.60;;;;;;6318001;28;20441;-69
2023/01/20 17:07:37;;;;;;;;;;;19.70;52.60;;;;;;6318245;28;19907;-69
2023/01/20 17:10:38;;;;;;;;;;;19.70;52.60;;;;;;6318656;28;19908;-69
2023/01/20 17:13:38;;;;;;;;;;;19.70;52.60;;;;;;6317815;28;19964;-68
2023/01/20 17:16:39;;;;;;;;;;;19.70;52.60;;;;;;6321204;28;19907;-69
2023/01/20 17:19:40;;;;;;;;;;;19.70;52.60;;;;;;6298007;28;19948;-69
2023/01/20 17:22:40;;;;;;;;;;;19.70;52.60;;;;;;6303725;28;20277;-69
2023/01/20 17:25:41;;;;;;;;;;;19.70;52.60;;;;;;6303046;28;19980;-69
2023/01/20 17:28:41;;;;;;;;;;;19.70;52.80;;;;;;6301925;28;19911;-69
2023/01/20 17:31:43;;;;;;;;;;;19.70;52.70;;;;;;6302319;28;19912;-69
2023/01/20 17:34:43;;;;;;;;;;;19.70;52.70;;;;;;6307666;28;19927;-69
2023/01/20 17:37:44;;;;;;;;;;;19.70;52.70;;;;;;6320797;28;20384;-69
2023/01/20 17:40:45;;;;;;;;;;;19.70;52.80;;;;;;6321149;28;19904;-69
2023/01/20 17:43:45;;;;;;;;;;;19.70;52.70;;;;;;6321246;28;19999;-69
2023/01/20 17:46:46;;;;;;;;;;;19.70;52.70;;;;;;6320281;28;19910;-68
2023/01/20 17:49:47;;;;;;;;;;;19.70;52.80;;;;;;6321221;28;19904;-69
2023/01/20 17:52:47;;;;;;;;;;;19.70;52.80;;;;;;6313436;28;19947;-69
2023/01/20 17:55:48;;;;;;;;;;;19.60;52.80;;;;;;6315589;28;20288;-69
2023/01/20 17:58:48;;;;;;;;;;;19.60;52.90;;;;;;6327061;28;19912;-69
2023/01/20 18:01:51;;;;;;;;;;;19.60;52.80;;;;;;6321929;28;19915;-69